Time;durP1;ratioP1;P1;durP2;ratioP2;P2;SDS_P1;SDS_P2;PMS_P1;PMS_P2;Temp;Humidity;BMP_temperature;BMP_pressure;BME280_temperature;BME280_humidity;BME280_pressure;Samples;Min_cycle;Max_cycle;Signal;HPM_P1;HPM_P2
2022/05/25 00:00:09;;;;;;;0.32;0.32;;;13.40;99.90;;;;;;4404112;32;20097;-70
2022/05/25 00:02:35;;;;;;;0.75;0.75;;;13.30;99.90;;;;;;4415908;32;20471;-70
2022/05/25 00:05:01;;;;;;;0.32;0.32;;;13.30;99.90;;;;;;4425123;32;20069;-71
2022/05/25 00:07:27;;;;;;;0.73;0.52;;;13.30;99.90;;;;;;4424780;32;20555;-70
2022/05/25 00:09:53;;;;;;;0.20;0.20;;;13.20;99.90;;;;;;4424037;32;20183;-70
2022/05/25 00:12:18;;;;;;;0.30;0.30;;;13.20;99.90;;;;;;4423383;32;20070;-71
2022/05/25 00:14:44;;;;;;;0.40;0.40;;;13.20;99.90;;;;;;4423568;32;20065;-71
2022/05/25 00:17:10;;;;;;;0.30;0.30;;;13.20;99.90;;;;;;4424607;32;20086;-71
2022/05/25 00:20:06;;;;;;;0.40;0.40;;;13.10;99.90;;;;;;4424464;32;20089;-71
2022/05/25 00:22:20;;;;;;;1.30;1.12;;;13.00;99.90;;;;;;4411914;32;20528;-71
2022/05/25 00:24:46;;;;;;;0.28;0.28;;;13.10;99.90;;;;;;4426071;32;20109;-70
2022/05/25 00:27:12;;;;;;;0.35;0.35;;;13.10;99.90;;;;;;4422637;32;21604;-70
2022/05/25 00:29:37;;;;;;;0.40;0.40;;;12.90;99.90;;;;;;4404806;32;20267;-72
2022/05/25 00:32:04;;;;;;;2.40;0.75;;;13.00;99.90;;;;;;4412762;32;20065;-70
2022/05/25 00:34:30;;;;;;;0.40;0.40;;;12.90;99.90;;;;;;4423396;32;20124;-70
2022/05/25 00:36:55;;;;;;;0.30;0.30;;;13.00;99.90;;;;;;4423032;32;20541;-70
2022/05/25 00:39:23;;;;;;;0.40;0.40;;;12.90;99.90;;;;;;4424501;32;20078;-70
2022/05/25 00:41:50;;;;;;;0.40;0.40;;;12.90;99.90;;;;;;4423860;32;20098;-70
2022/05/25 00:44:15;;;;;;;0.30;0.30;;;12.90;99.90;;;;;;4423920;32;20081;-70
2022/05/25 00:46:41;;;;;;;0.30;0.30;;;12.80;99.90;;;;;;4424670;32;20134;-70
2022/05/25 00:49:14;;;;;;;0.30;0.30;;;12.80;99.90;;;;;;4424632;32;20090;-70
2022/05/25 00:51:43;;;;;;;0.85;0.50;;;12.80;99.90;;;;;;4423327;32;20540;-70
2022/05/25 00:54:15;;;;;;;0.30;0.30;;;12.80;99.90;;;;;;4424738;32;20112;-70
2022/05/25 00:56:43;;;;;;;0.40;0.40;;;12.80;99.90;;;;;;4424618;32;20061;-70
2022/05/25 00:59:13;;;;;;;0.40;0.40;;;12.80;99.90;;;;;;4406331;32;20065;-70
2022/05/25 01:01:38;;;;;;;0.40;0.40;;;12.80;99.90;;;;;;4406716;32;20505;-70
2022/05/25 01:04:05;;;;;;;0.40;0.40;;;12.80;99.90;;;;;;4424245;32;20082;-71
2022/05/25 01:07:07;;;;;;;0.20;0.20;;;12.90;99.90;;;;;;4424138;32;20497;-70
2022/05/25 01:09:54;;;;;;;0.25;0.25;;;12.80;99.90;;;;;;4414268;32;20098;-70
2022/05/25 01:12:30;;;;;;;0.30;0.30;;;12.80;99.90;;;;;;4414222;32;20057;-70
2022/05/25 01:15:05;;;;;;;0.30;0.30;;;12.70;99.90;;;;;;4423474;32;20073;-70
2022/05/25 01:17:58;;;;;;;0.40;0.40;;;12.50;99.90;;;;;;4420862;32;20061;-70
2022/05/25 01:20:32;;;;;;;0.57;0.50;;;12.50;99.90;;;;;;4414185;32;20062;-70
2022/05/25 01:23:37;;;;;;;0.30;0.30;;;12.40;99.90;;;;;;4422862;32;20422;-70
2022/05/25 01:26:28;;;;;;;0.30;0.30;;;12.50;99.90;;;;;;4411773;32;20096;-70
2022/05/25 01:29:26;;;;;;;0.30;0.30;;;12.50;99.90;;;;;;4405683;32;20073;-70
2022/05/25 01:32:02;;;;;;;0.45;0.45;;;12.50;99.90;;;;;;4411909;32;20188;-70
2022/05/25 01:34:39;;;;;;;0.40;0.40;;;12.50;99.90;;;;;;4424463;32;20061;-70
2022/05/25 01:37:26;;;;;;;0.65;0.60;;;12.30;99.90;;;;;;4419672;32;20517;-70
2022/05/25 01:40:17;;;;;;;0.25;0.25;;;12.20;99.90;;;;;;4411627;32;20105;-70
2022/05/25 01:42:46;;;;;;;;;;;12.20;99.90;;;;;;4422484;32;20082;-70
2022/05/25 01:45:15;;;;;;;0.40;0.40;;;12.30;99.90;;;;;;4423237;32;20243;-70
2022/05/25 01:47:45;;;;;;;0.30;0.30;;;12.30;99.90;;;;;;4421294;32;20069;-70
2022/05/25 01:50:14;;;;;;;0.43;0.40;;;12.30;99.90;;;;;;4424396;32;20061;-70
2022/05/25 01:52:44;;;;;;;0.32;0.32;;;12.30;99.90;;;;;;4421556;32;20489;-70
2022/05/25 01:55:18;;;;;;;0.88;0.60;;;12.30;99.90;;;;;;4422611;32;20069;-71
2022/05/25 01:57:49;;;;;;;1.67;1.15;;;12.20;99.90;;;;;;4415435;32;20691;-71
2022/05/25 02:00:34;;;;;;;0.30;0.30;;;12.20;99.90;;;;;;4402791;32;20083;-70
2022/05/25 02:04:33;;;;;;;0.40;0.40;;;12.20;99.90;;;;;;4419377;32;20124;-70
2022/05/25 02:06:12;;;;;;;0.30;0.30;;;12.30;99.90;;;;;;4406629;32;20070;-70
2022/05/25 02:09:18;;;;;;;0.55;0.55;;;12.50;99.90;;;;;;4411734;32;20086;-70
2022/05/25 02:11:48;;;;;;;0.40;0.40;;;12.40;99.90;;;;;;4402699;32;20066;-70
2022/05/25 02:14:50;;;;;;;0.30;0.30;;;12.40;99.90;;;;;;4421724;32;20457;-70
2022/05/25 02:17:42;;;;;;;0.30;0.30;;;12.40;99.90;;;;;;4413025;32;20086;-70
2022/05/25 02:20:32;;;;;;;0.55;0.55;;;12.40;99.90;;;;;;4415895;32;20098;-71
2022/05/25 02:23:04;;;;;;;1.35;0.50;;;12.30;99.90;;;;;;4413732;32;21462;-71
2022/05/25 02:25:41;;;;;;;0.28;0.28;;;12.40;99.90;;;;;;4424795;32;20779;-71
2022/05/25 02:28:11;;;;;;;0.30;0.30;;;12.40;99.90;;;;;;4415458;32;20077;-71
2022/05/25 02:30:43;;;;;;;0.50;0.50;;;12.40;99.90;;;;;;4404754;32;20077;-71
2022/05/25 02:33:13;;;;;;;0.30;0.30;;;12.40;99.90;;;;;;4422489;32;20080;-71
2022/05/25 02:35:41;;;;;;;0.35;0.35;;;12.30;99.90;;;;;;4425815;32;20093;-71
2022/05/25 02:38:08;;;;;;;0.80;0.77;;;12.30;99.90;;;;;;4425190;32;20081;-71
2022/05/25 02:40:35;;;;;;;0.35;0.35;;;12.30;99.90;;;;;;4427393;32;20150;-71
2022/05/25 02:43:02;;;;;;;0.40;0.40;;;12.30;99.90;;;;;;4426573;32;20115;-71
2022/05/25 02:45:28;;;;;;;0.32;0.32;;;12.30;99.90;;;;;;4425497;32;20139;-71
2022/05/25 02:47:54;;;;;;;0.40;0.40;;;12.30;99.90;;;;;;4425282;32;20596;-71
2022/05/25 02:50:19;;;;;;;0.52;0.52;;;12.50;99.90;;;;;;4426906;32;20085;-71
2022/05/25 02:52:45;;;;;;;0.45;0.45;;;12.50;99.90;;;;;;4425152;32;20442;-71
2022/05/25 02:55:10;;;;;;;0.60;0.60;;;12.40;99.90;;;;;;4425207;32;20070;-71
2022/05/25 02:57:36;;;;;;;0.35;0.35;;;12.40;99.90;;;;;;4419623;32;20082;-71
2022/05/25 03:00:03;;;;;;;0.30;0.30;;;12.30;99.90;;;;;;4408104;32;20068;-71
2022/05/25 03:02:29;;;;;;;0.40;0.40;;;12.20;99.90;;;;;;4419360;32;20540;-71
2022/05/25 03:04:54;;;;;;;0.40;0.40;;;12.30;99.90;;;;;;4424915;32;20081;-71
2022/05/25 03:07:20;;;;;;;0.50;0.50;;;12.30;99.90;;;;;;4424468;32;20132;-71
2022/05/25 03:09:45;;;;;;;0.62;0.60;;;12.30;99.90;;;;;;4427006;32;20093;-71
2022/05/25 03:12:13;;;;;;;0.30;0.30;;;12.40;99.90;;;;;;4427116;32;20065;-71
2022/05/25 03:14:39;;;;;;;0.40;0.40;;;12.40;99.90;;;;;;4426947;32;20062;-71
2022/05/25 03:17:09;;;;;;;0.65;0.32;;;12.50;99.90;;;;;;4426251;32;20082;-71
2022/05/25 03:19:36;;;;;;;0.50;0.50;;;12.50;99.90;;;;;;4422595;32;20152;-71
2022/05/25 03:22:01;;;;;;;2.17;0.82;;;12.40;99.90;;;;;;4424702;32;20439;-71
2022/05/25 03:24:27;;;;;;;0.40;0.40;;;12.30;99.90;;;;;;4422659;32;20092;-70
2022/05/25 03:26:52;;;;;;;0.30;0.30;;;12.30;99.90;;;;;;4424795;32;20124;-70
2022/05/25 03:29:19;;;;;;;0.30;0.30;;;12.30;99.90;;;;;;4406546;32;20081;-70
2022/05/25 03:31:44;;;;;;;0.50;0.50;;;12.40;99.90;;;;;;4411770;32;20097;-70
2022/05/25 03:34:10;;;;;;;0.40;0.40;;;12.50;99.90;;;;;;4426312;32;20119;-70
2022/05/25 03:36:35;;;;;;;0.30;0.30;;;12.60;99.90;;;;;;4424597;32;20124;-70
2022/05/25 03:39:01;;;;;;;0.30;0.30;;;12.60;99.90;;;;;;4423880;32;20081;-70
2022/05/25 03:41:26;;;;;;;0.45;0.45;;;12.40;99.90;;;;;;4424254;32;20149;-70
2022/05/25 03:43:52;;;;;;;0.30;0.30;;;12.40;99.90;;;;;;4425573;32;20057;-70
2022/05/25 03:46:18;;;;;;;17.73;0.62;;;12.40;99.90;;;;;;4425320;32;20177;-70
2022/05/25 03:48:43;;;;;;;0.50;0.50;;;12.50;99.90;;;;;;4423925;32;20065;-70
2022/05/25 03:51:09;;;;;;;0.50;0.50;;;12.60;99.90;;;;;;4426290;32;20087;-70
2022/05/25 03:53:34;;;;;;;0.40;0.40;;;12.60;99.90;;;;;;4426622;32;20066;-70
2022/05/25 03:56:00;;;;;;;0.50;0.50;;;12.60;99.90;;;;;;4426709;32;20093;-70
2022/05/25 03:58:26;;;;;;;0.40;0.40;;;12.70;99.90;;;;;;4413859;32;20140;-70
2022/05/25 04:00:51;;;;;;;0.40;0.40;;;12.70;99.90;;;;;;4404301;32;20521;-71
2022/05/25 04:03:16;;;;;;;0.30;0.30;;;12.80;99.90;;;;;;4425146;32;20073;-70
2022/05/25 04:05:43;;;;;;;0.30;0.30;;;12.90;99.90;;;;;;4426952;32;20134;-70
2022/05/25 04:08:10;;;;;;;0.32;0.32;;;12.90;99.90;;;;;;4425568;32;20083;-70
2022/05/25 04:10:36;;;;;;;0.75;0.50;;;12.80;99.90;;;;;;4425182;32;20156;-70
2022/05/25 04:13:01;;;;;;;0.30;0.30;;;12.90;99.90;;;;;;4424816;32;20126;-70
2022/05/25 04:15:29;;;;;;;0.30;0.30;;;12.90;99.90;;;;;;4424201;32;20080;-70
2022/05/25 04:17:55;;;;;;;0.40;0.40;;;13.00;99.90;;;;;;4425956;32;20462;-70
2022/05/25 04:20:22;;;;;;;0.30;0.30;;;13.10;99.90;;;;;;4424192;32;20090;-70
2022/05/25 04:22:49;;;;;;;0.30;0.30;;;13.20;99.90;;;;;;4395914;32;20244;-71
2022/05/25 04:25:17;;;;;;;0.95;0.65;;;13.30;99.90;;;;;;4385693;32;20061;-70
2022/05/25 04:27:45;;;;;;;0.30;0.30;;;13.30;99.90;;;;;;4380438;32;20505;-70
2022/05/25 04:30:13;;;;;;;0.90;0.90;;;13.30;99.90;;;;;;4371936;32;20539;-71
2022/05/25 04:32:39;;;;;;;0.40;0.40;;;13.40;99.90;;;;;;4378434;32;20121;-70
2022/05/25 04:35:05;;;;;;;0.40;0.40;;;13.40;99.90;;;;;;4402561;32;20085;-69
2022/05/25 04:38:02;;;;;;;2.55;0.45;;;13.50;99.90;;;;;;4424480;32;20077;-69
2022/05/25 04:40:21;;;;;;;0.43;0.43;;;13.50;99.90;;;;;;4411924;32;20094;-69
2022/05/25 04:42:47;;;;;;;0.47;0.47;;;13.60;99.90;;;;;;4426462;32;20077;-69
2022/05/25 04:45:13;;;;;;;0.50;0.28;;;13.60;99.90;;;;;;4425702;32;20077;-70
2022/05/25 04:47:40;;;;;;;0.35;0.35;;;13.50;99.90;;;;;;4425636;32;20060;-70
2022/05/25 04:50:08;;;;;;;10.85;0.50;;;13.50;99.90;;;;;;4424280;32;20082;-70
2022/05/25 04:52:35;;;;;;;0.37;0.37;;;13.50;99.90;;;;;;4403202;32;20102;-70
2022/05/25 04:55:00;;;;;;;0.30;0.30;;;13.50;99.90;;;;;;4382366;32;20088;-70
2022/05/25 04:57:27;;;;;;;0.43;0.43;;;13.60;99.90;;;;;;4413225;32;20129;-69
2022/05/25 04:59:58;;;;;;;0.30;0.30;;;13.70;99.90;;;;;;4405446;32;20086;-69
2022/05/25 05:02:23;;;;;;;0.40;0.40;;;13.70;99.90;;;;;;4405723;32;20314;-69
2022/05/25 05:04:49;;;;;;;0.50;0.50;;;13.70;99.90;;;;;;4389183;32;20226;-69
2022/05/25 05:07:15;;;;;;;0.20;0.20;;;13.90;99.90;;;;;;4386699;32;20081;-70
2022/05/25 05:09:44;;;;;;;0.50;0.50;;;14.00;99.90;;;;;;4378703;32;20367;-70
2022/05/25 05:12:11;;;;;;;0.52;0.52;;;14.00;99.90;;;;;;4379034;32;20077;-70
2022/05/25 05:14:37;;;;;;;7.37;0.45;;;14.20;99.90;;;;;;4382383;32;20073;-70
2022/05/25 05:17:05;;;;;;;0.28;0.28;;;14.30;99.90;;;;;;4385041;32;20544;-70
2022/05/25 05:19:31;;;;;;;0.95;0.82;;;14.30;99.90;;;;;;4332364;32;21190;-70
2022/05/25 05:21:57;;;;;;;0.40;0.40;;;14.40;99.90;;;;;;4334941;32;20413;-70
2022/05/25 05:24:24;;;;;;;0.28;0.28;;;14.50;99.90;;;;;;4325682;32;21030;-71
2022/05/25 05:26:51;;;;;;;0.55;0.55;;;14.50;99.90;;;;;;4328966;32;20106;-71
2022/05/25 05:29:17;;;;;;;0.30;0.30;;;14.60;99.90;;;;;;4320803;32;21331;-71
2022/05/25 05:31:44;;;;;;;0.43;0.43;;;14.70;99.90;;;;;;4326936;32;20139;-71
2022/05/25 05:34:10;;;;;;;0.62;0.60;;;14.80;99.90;;;;;;4342529;32;20186;-72
2022/05/25 05:36:43;;;;;;;0.30;0.30;;;14.90;99.90;;;;;;4336406;32;20328;-71
2022/05/25 05:39:11;;;;;;;0.70;0.40;;;15.00;99.90;;;;;;4333933;32;20171;-72
2022/05/25 05:41:59;;;;;;;0.70;0.70;;;15.00;99.90;;;;;;4354108;32;20277;-71
2022/05/25 05:44:29;;;;;;;0.45;0.43;;;15.00;99.90;;;;;;4356309;32;20175;-70
2022/05/25 05:46:59;;;;;;;1.60;0.68;;;15.10;99.90;;;;;;4388300;32;20284;-71
2022/05/25 05:49:25;;;;;;;0.32;0.32;;;15.10;99.90;;;;;;4374122;32;20715;-71
2022/05/25 05:51:51;;;;;;;0.35;0.35;;;15.10;99.90;;;;;;4370032;32;20082;-70
2022/05/25 05:54:17;;;;;;;0.50;0.50;;;15.10;99.90;;;;;;4391118;32;20110;-71
2022/05/25 05:56:44;;;;;;;0.40;0.40;;;15.10;99.90;;;;;;4401654;32;20728;-70
2022/05/25 05:59:09;;;;;;;0.30;0.30;;;15.30;99.90;;;;;;4391974;32;20295;-70
2022/05/25 06:01:34;;;;;;;0.30;0.30;;;15.30;99.90;;;;;;4380017;32;20337;-71
2022/05/25 06:04:00;;;;;;;0.40;0.40;;;15.30;99.90;;;;;;4359028;32;20237;-69
2022/05/25 06:06:26;;;;;;;0.25;0.25;;;15.40;99.90;;;;;;4358943;32;20407;-70
2022/05/25 06:08:52;;;;;;;0.43;0.43;;;15.50;99.90;;;;;;4391354;32;20565;-70
2022/05/25 06:11:20;;;;;;;0.28;0.28;;;15.50;99.90;;;;;;4394349;32;20432;-69
2022/05/25 06:13:46;;;;;;;0.40;0.40;;;15.70;99.90;;;;;;4393691;32;20102;-72
2022/05/25 06:19:58;;;;;;;0.52;0.50;;;15.80;99.90;;;;;;4375573;32;20187;-70
2022/05/25 06:21:42;;;;;;;0.30;0.30;;;15.80;99.90;;;;;;4368014;32;20159;-70
2022/05/25 06:24:08;;;;;;;1.83;0.52;;;15.90;99.90;;;;;;4396501;32;20093;-70
2022/05/25 06:26:34;;;;;;;0.30;0.30;;;15.90;99.90;;;;;;4399892;32;20866;-70
2022/05/25 06:29:01;;;;;;;0.35;0.35;;;16.00;99.90;;;;;;4385999;32;20081;-69
2022/05/25 06:31:28;;;;;;;0.37;0.37;;;16.00;99.90;;;;;;4380823;32;20444;-70
2022/05/25 06:33:53;;;;;;;0.35;0.35;;;16.00;99.90;;;;;;4361838;32;20236;-70
2022/05/25 06:36:25;;;;;;;6.53;0.70;;;16.00;99.90;;;;;;4359220;32;20117;-70
2022/05/25 06:38:51;;;;;;;1.12;0.85;;;16.10;99.90;;;;;;4390350;32;20541;-70
2022/05/25 06:41:17;;;;;;;0.37;0.37;;;16.10;99.90;;;;;;4399750;32;20097;-70
2022/05/25 06:43:43;;;;;;;0.35;0.35;;;16.10;99.90;;;;;;4402244;32;20082;-70
2022/05/25 06:46:11;;;;;;;0.85;0.40;;;16.20;99.90;;;;;;4401274;32;20069;-71
2022/05/25 06:48:38;;;;;;;0.30;0.30;;;16.20;99.90;;;;;;4382328;32;20996;-71
2022/05/25 06:51:12;;;;;;;0.40;0.40;;;16.20;99.90;;;;;;4375978;32;20719;-69
2022/05/25 06:53:38;;;;;;;0.28;0.28;;;16.30;99.90;;;;;;4397354;32;20070;-70
2022/05/25 06:56:04;;;;;;;0.30;0.30;;;16.30;99.90;;;;;;4404020;32;20098;-70
2022/05/25 06:58:29;;;;;;;0.30;0.30;;;16.40;99.90;;;;;;4393724;32;20128;-70
2022/05/25 07:00:55;;;;;;;0.40;0.40;;;16.30;99.90;;;;;;4379645;32;20082;-71
2022/05/25 07:03:21;;;;;;;0.32;0.32;;;16.40;99.90;;;;;;4377308;32;20141;-71
2022/05/25 07:05:47;;;;;;;0.52;0.52;;;16.60;99.90;;;;;;4359352;32;20293;-70
2022/05/25 07:08:13;;;;;;;0.43;0.43;;;16.70;99.90;;;;;;4394280;32;20101;-70
2022/05/25 07:10:42;;;;;;;0.30;0.30;;;16.70;99.90;;;;;;4401241;32;20185;-70
2022/05/25 07:13:08;;;;;;;0.35;0.35;;;16.70;99.90;;;;;;4403952;32;20082;-70
2022/05/25 07:15:34;;;;;;;0.40;0.40;;;16.60;99.90;;;;;;4401261;32;20213;-70
2022/05/25 07:17:59;;;;;;;0.55;0.55;;;16.60;99.90;;;;;;4399483;32;20591;-70
2022/05/25 07:20:25;;;;;;;0.30;0.30;;;16.60;99.90;;;;;;4376165;32;20190;-71
2022/05/25 07:22:50;;;;;;;0.40;0.40;;;16.70;99.90;;;;;;4393078;32;20081;-70
2022/05/25 07:25:16;;;;;;;0.40;0.40;;;16.70;99.90;;;;;;4402041;32;20085;-70
2022/05/25 07:27:41;;;;;;;0.40;0.40;;;16.60;99.90;;;;;;4393243;32;21117;-71
2022/05/25 07:30:07;;;;;;;0.50;0.50;;;16.50;99.90;;;;;;4378498;32;20116;-71
2022/05/25 07:32:32;;;;;;;0.30;0.30;;;16.50;99.90;;;;;;4372207;32;20089;-71
2022/05/25 07:35:02;;;;;;;0.50;0.50;;;16.50;99.90;;;;;;4355226;32;20191;-70
2022/05/25 07:37:33;;;;;;;0.20;0.20;;;16.60;99.90;;;;;;4372646;32;85246;-70
2022/05/25 07:40:05;;;;;;;0.43;0.43;;;16.70;99.90;;;;;;4393130;32;20148;-70
2022/05/25 07:42:31;;;;;;;0.40;0.40;;;16.90;99.90;;;;;;4395300;32;20386;-70
2022/05/25 07:44:59;;;;;;;0.50;0.47;;;17.00;99.90;;;;;;4396900;32;20328;-70
2022/05/25 07:47:27;;;;;;;0.30;0.30;;;17.20;99.90;;;;;;4390840;32;20464;-70
2022/05/25 07:49:52;;;;;;;0.30;0.30;;;17.20;99.90;;;;;;4356282;32;20236;-70
2022/05/25 07:52:20;;;;;;;0.30;0.30;;;17.20;99.90;;;;;;4357636;32;20380;-71
2022/05/25 07:54:46;;;;;;;1.15;0.75;;;17.00;99.90;;;;;;4380571;32;20093;-71
2022/05/25 07:57:12;;;;;;;0.85;0.45;;;17.00;99.90;;;;;;4382573;32;20338;-71
2022/05/25 07:59:39;;;;;;;0.30;0.30;;;17.10;99.90;;;;;;4362426;32;21053;-71
2022/05/25 08:06:00;;;;;;;0.30;0.30;;;17.30;99.90;;;;;;4320805;32;20165;-73
2022/05/25 08:07:47;;;;;;;0.30;0.30;;;17.10;99.90;;;;;;4348418;32;20085;-72
2022/05/25 08:10:18;;;;;;;0.60;0.60;;;17.10;99.90;;;;;;4376723;32;20717;-72
2022/05/25 08:12:45;;;;;;;0.40;0.40;;;17.10;99.90;;;;;;4375339;32;20088;-73
2022/05/25 08:15:13;;;;;;;0.20;0.20;;;17.10;99.90;;;;;;4372565;32;20243;-73
2022/05/25 08:17:39;;;;;;;1.75;0.60;;;17.20;99.90;;;;;;4360614;32;21102;-73
2022/05/25 08:20:05;;;;;;;0.35;0.35;;;17.30;99.90;;;;;;4356655;32;20097;-73
2022/05/25 08:22:31;;;;;;;0.80;0.50;;;17.40;99.90;;;;;;4366496;32;20081;-72
2022/05/25 08:24:57;;;;;;;0.50;0.50;;;17.50;99.90;;;;;;4373809;32;21063;-73
2022/05/25 08:27:22;;;;;;;0.50;0.50;;;17.70;99.90;;;;;;4370337;32;20097;-73
2022/05/25 08:29:48;;;;;;;0.30;0.30;;;17.70;99.90;;;;;;4357080;32;20118;-73
2022/05/25 08:32:14;;;;;;;0.30;0.30;;;17.70;99.90;;;;;;4360267;32;21060;-73
2022/05/25 08:34:40;;;;;;;10.15;1.37;;;17.70;99.90;;;;;;4330057;32;20612;-73
2022/05/25 08:37:05;;;;;;;1.65;0.43;;;17.90;99.90;;;;;;4338179;32;20130;-74
2022/05/25 08:39:31;;;;;;;0.35;0.35;;;18.10;99.90;;;;;;4367182;32;20097;-74
2022/05/25 08:42:00;;;;;;;0.40;0.40;;;18.10;99.90;;;;;;4366956;32;22229;-73
2022/05/25 08:44:27;;;;;;;0.70;0.50;;;18.00;99.90;;;;;;4372492;32;20108;-72
2022/05/25 08:46:55;;;;;;;0.47;0.47;;;18.10;99.90;;;;;;4369482;32;20118;-73
2022/05/25 08:49:24;;;;;;;16.05;1.25;;;18.30;99.90;;;;;;4351882;32;21043;-73
2022/05/25 08:51:55;;;;;;;0.28;0.28;;;18.30;99.90;;;;;;4365037;32;20187;-74
2022/05/25 08:54:22;;;;;;;;;;;18.20;99.90;;;;;;4375323;32;20096;-72
2022/05/25 08:56:59;;;;;;;0.45;0.45;;;18.10;99.90;;;;;;4373670;32;19957;-68
2022/05/25 08:59:39;;;;;;;1.85;0.57;;;18.10;99.90;;;;;;4354105;32;20081;-72
2022/05/25 09:02:20;;;;;;;0.45;0.45;;;18.20;99.90;;;;;;4349453;32;21693;-73
2022/05/25 09:04:49;;;;;;;;;;;18.30;99.90;;;;;;4322879;32;21021;-73
2022/05/25 09:07:35;;;;;;;0.20;0.20;;;18.40;99.90;;;;;;4349712;32;19993;-73
2022/05/25 09:10:03;;;;;;;0.50;0.50;;;18.30;99.90;;;;;;4352718;32;20125;-73
2022/05/25 09:12:43;;;;;;;0.35;0.35;;;18.40;99.90;;;;;;4356736;32;20105;-72
2022/05/25 09:15:32;;;;;;;0.30;0.30;;;18.60;99.90;;;;;;4350035;32;20125;-73
2022/05/25 09:18:02;;;;;;;4.80;0.85;;;18.80;99.90;;;;;;4335455;32;20676;-71
2022/05/25 09:20:32;;;;;;;1.85;0.70;;;19.10;99.90;;;;;;4327421;32;20479;-71
2022/05/25 09:22:58;;;;;;;0.30;0.30;;;19.00;99.90;;;;;;4350847;32;20395;-72
2022/05/25 09:25:24;;;;;;;0.45;0.35;;;19.10;99.90;;;;;;4372486;32;20199;-71
2022/05/25 09:28:12;;;;;;;0.20;0.20;;;19.20;99.90;;;;;;4378914;32;20073;-70
2022/05/25 09:30:41;;;;;;;0.55;0.55;;;19.50;99.90;;;;;;4379497;32;20462;-74
2022/05/25 09:33:20;;;;;;;0.30;0.30;;;19.50;99.90;;;;;;4354930;32;20361;-73
2022/05/25 09:35:53;;;;;;;0.30;0.30;;;19.40;99.90;;;;;;4355783;32;20122;-73
2022/05/25 09:38:45;;;;;;;0.28;0.28;;;19.50;99.90;;;;;;4375311;32;21186;-75
2022/05/25 09:41:18;;;;;;;1.35;0.62;;;19.60;99.90;;;;;;4386461;32;20180;-72
2022/05/25 09:43:43;;;;;;;0.30;0.30;;;19.60;99.90;;;;;;4389799;32;20081;-72
2022/05/25 09:46:20;;;;;;;0.30;0.30;;;19.60;99.90;;;;;;4395154;32;20147;-72
2022/05/25 09:48:50;;;;;;;0.30;0.30;;;19.70;99.90;;;;;;4364973;32;20936;-72
2022/05/25 09:51:24;;;;;;;0.40;0.40;;;19.80;99.50;;;;;;4357242;32;20370;-73
2022/05/25 09:53:54;;;;;;;0.68;0.43;;;19.90;98.50;;;;;;4379119;32;21711;-72
2022/05/25 09:56:28;;;;;;;0.30;0.30;;;20.00;99.10;;;;;;4390487;32;20632;-73
2022/05/25 09:58:56;;;;;;;0.47;0.47;;;19.90;99.00;;;;;;4376014;32;20402;-72
2022/05/25 10:01:30;;;;;;;0.30;0.30;;;19.80;97.80;;;;;;4380316;32;20234;-74
2022/05/25 10:03:56;;;;;;;0.62;0.62;;;19.70;97.70;;;;;;4357159;32;20351;-73
2022/05/25 10:06:25;;;;;;;0.30;0.30;;;19.50;98.10;;;;;;4367919;32;20156;-74
2022/05/25 10:09:17;;;;;;;0.20;0.20;;;19.30;98.40;;;;;;4379829;32;20093;-73
2022/05/25 10:11:46;;;;;;;0.30;0.30;;;19.20;99.30;;;;;;4360213;32;20104;-73
2022/05/25 10:14:25;;;;;;;0.30;0.30;;;19.30;98.10;;;;;;4373066;32;20424;-73
2022/05/25 10:16:52;;;;;;;0.30;0.30;;;19.80;97.00;;;;;;4364770;32;20103;-72
2022/05/25 10:19:20;;;;;;;0.30;0.30;;;19.70;96.80;;;;;;4338930;32;20248;-72
2022/05/25 10:21:53;;;;;;;0.60;0.60;;;19.80;97.50;;;;;;4348693;32;20096;-72
2022/05/25 10:24:32;;;;;;;0.30;0.30;;;19.90;97.40;;;;;;4383362;32;20128;-70
2022/05/25 10:27:01;;;;;;;0.30;0.30;;;19.80;97.70;;;;;;4391899;32;20383;-72
2022/05/25 10:36:49;;;;;;;0.40;0.40;;;19.70;97.10;;;;;;4358042;32;20617;-71
2022/05/25 10:38:29;;;;;;;0.20;0.20;;;20.30;96.90;;;;;;4375738;32;20144;-71
2022/05/25 10:40:57;;;;;;;0.30;0.30;;;20.70;96.50;;;;;;4384243;32;20578;-73
2022/05/25 10:43:29;;;;;;;0.30;0.30;;;20.80;95.20;;;;;;4395534;32;20099;-72
2022/05/25 10:45:57;;;;;;;0.20;0.20;;;20.70;96.00;;;;;;4388415;32;20742;-72
2022/05/25 10:48:57;;;;;;;0.30;0.30;;;20.50;95.40;;;;;;4363353;32;20432;-72
2022/05/25 10:51:30;;;;;;;0.30;0.30;;;20.30;96.40;;;;;;4353794;32;20110;-72
2022/05/25 10:55:05;;;;;;;0.52;0.52;;;20.30;94.70;;;;;;4370104;32;20401;-74
2022/05/25 10:57:23;;;;;;;0.30;0.30;;;19.80;95.10;;;;;;4356576;32;20929;-73
2022/05/25 11:00:09;;;;;;;0.30;0.30;;;19.90;95.80;;;;;;4363778;32;20623;-73
2022/05/25 11:02:45;;;;;;;0.30;0.30;;;20.10;95.50;;;;;;4353845;32;20426;-73
2022/05/25 11:05:23;;;;;;;0.40;0.40;;;20.80;94.50;;;;;;4370255;32;20367;-70
2022/05/25 11:07:54;;;;;;;0.35;0.35;;;21.20;94.00;;;;;;4388601;32;20841;-71
2022/05/25 11:10:43;;;;;;;0.20;0.20;;;21.50;93.90;;;;;;4388704;32;20493;-71
2022/05/25 11:13:48;;;;;;;0.30;0.30;;;22.10;93.60;;;;;;4385401;32;20105;-72
2022/05/25 11:16:33;;;;;;;6.93;1.48;;;22.00;92.80;;;;;;4367434;32;20225;-70
2022/05/25 11:19:27;;;;;;;0.30;0.30;;;21.70;92.70;;;;;;4364998;32;20420;-71
2022/05/25 11:22:10;;;;;;;0.22;0.22;;;21.90;92.80;;;;;;4352754;32;21665;-71
2022/05/25 11:24:55;;;;;;;1.55;0.40;;;22.00;92.10;;;;;;4393573;32;20504;-72
2022/05/25 11:27:44;;;;;;;0.45;0.45;;;21.80;92.70;;;;;;4390030;32;20117;-71
2022/05/25 11:30:18;;;;;;;0.70;0.70;;;21.30;92.60;;;;;;4369031;32;20090;-71
2022/05/25 11:32:54;;;;;;;0.30;0.30;;;20.80;93.20;;;;;;4365453;32;20312;-70
2022/05/25 11:35:49;;;;;;;0.43;0.43;;;20.60;93.20;;;;;;4370655;32;20082;-70
2022/05/25 11:38:42;;;;;;;1.37;1.10;;;20.40;95.00;;;;;;4373574;32;20174;-70
2022/05/25 11:41:48;;;;;;;0.30;0.30;;;20.30;96.80;;;;;;4374237;32;20090;-71
2022/05/25 11:44:24;;;;;;;0.30;0.30;;;20.70;95.00;;;;;;4354863;32;20813;-71
2022/05/25 11:46:50;;;;;;;0.20;0.20;;;20.80;95.40;;;;;;4356783;32;20809;-72
2022/05/25 11:49:56;;;;;;;0.43;0.43;;;21.60;93.80;;;;;;4354843;32;20539;-71
2022/05/25 11:52:38;;;;;;;0.10;0.10;;;21.80;92.70;;;;;;4353938;32;20132;-71
2022/05/25 11:55:16;;;;;;;0.17;0.17;;;21.90;93.40;;;;;;4383246;32;20408;-71
2022/05/25 11:57:49;;;;;;;0.20;0.20;;;22.50;92.70;;;;;;4386437;32;20155;-72
2022/05/25 12:00:54;;;;;;;0.30;0.30;;;22.50;91.50;;;;;;4379879;32;20117;-70
2022/05/25 12:03:42;;;;;;;0.15;0.15;;;22.20;92.00;;;;;;4366401;32;20611;-72
2022/05/25 12:06:27;;;;;;;0.37;0.37;;;21.90;93.30;;;;;;4387290;32;20074;-71
2022/05/25 12:09:03;;;;;;;0.10;0.10;;;21.80;93.80;;;;;;4395443;32;20579;-72
2022/05/25 12:11:49;;;;;;;0.20;0.20;;;21.50;92.60;;;;;;4382976;32;20101;-72
2022/05/25 12:14:47;;;;;;;0.30;0.30;;;21.10;93.00;;;;;;4386138;32;20101;-72
2022/05/25 12:17:24;;;;;;;0.30;0.30;;;20.80;93.50;;;;;;4376891;32;20260;-71
2022/05/25 12:19:53;;;;;;;0.20;0.20;;;20.50;95.00;;;;;;4360991;32;21473;-71
2022/05/25 12:22:22;;;;;;;0.10;0.10;;;21.00;96.10;;;;;;4372567;32;20140;-71
2022/05/25 12:24:53;;;;;;;0.17;0.17;;;21.60;95.40;;;;;;4381365;32;20088;-71
2022/05/25 12:27:21;;;;;;;;;;;22.90;92.60;;;;;;4390299;32;20089;-71
2022/05/25 12:29:50;;;;;;;0.10;0.10;;;24.00;91.60;;;;;;4377693;32;20259;-71
2022/05/25 12:32:17;;;;;;;0.10;0.10;;;24.50;90.30;;;;;;4366396;32;20157;-71
2022/05/25 12:34:46;;;;;;;0.37;0.20;;;24.70;90.80;;;;;;4359188;32;20084;-72
2022/05/25 12:37:16;;;;;;;0.10;0.10;;;25.40;86.30;;;;;;4385959;32;20403;-73
2022/05/25 12:39:48;;;;;;;0.10;0.10;;;26.00;84.10;;;;;;4389638;32;20214;-72
2022/05/25 12:42:31;;;;;;;0.00;0.00;;;26.70;81.20;;;;;;4370330;32;20097;-71
2022/05/25 12:48:38;;;;;;;0.10;0.10;;;26.60;80.30;;;;;;4388845;32;20202;-73
2022/05/25 12:50:53;;;;;;;0.00;0.00;;;27.10;74.90;;;;;;4345657;32;20251;-72
2022/05/25 12:53:40;;;;;;;0.00;0.00;;;26.80;73.70;;;;;;4393649;32;20243;-72
2022/05/25 12:56:15;;;;;;;0.00;0.00;;;26.90;75.20;;;;;;4390462;32;20264;-72
2022/05/25 12:58:51;;;;;;;0.10;0.10;;;26.40;72.70;;;;;;4384230;32;20633;-72
2022/05/25 13:01:29;;;;;;;0.28;0.28;;;25.50;75.30;;;;;;4382132;32;20472;-73
2022/05/25 13:03:57;;;;;;;0.98;0.40;;;24.80;79.00;;;;;;4355047;32;20085;-71
2022/05/25 13:06:44;;;;;;;0.10;0.10;;;24.60;77.80;;;;;;4384202;32;20077;-72
2022/05/25 13:09:32;;;;;;;0.30;0.30;;;23.70;80.20;;;;;;4387371;32;20735;-71
2022/05/25 13:12:38;;;;;;;0.13;0.13;;;23.10;79.90;;;;;;4370979;32;20097;-72
2022/05/25 13:15:24;;;;;;;0.40;0.40;;;22.70;81.40;;;;;;4361676;32;20398;-72
2022/05/25 13:17:55;;;;;;;0.10;0.10;;;22.20;82.70;;;;;;4368074;32;20962;-72
2022/05/25 13:20:48;;;;;;;0.22;0.22;;;21.70;83.20;;;;;;4351047;32;21216;-72
2022/05/25 13:23:55;;;;;;;0.10;0.10;;;21.40;84.60;;;;;;4378163;32;20120;-72
2022/05/25 13:26:39;;;;;;;0.20;0.20;;;21.20;86.10;;;;;;4388318;32;20089;-72
2022/05/25 13:29:14;;;;;;;0.30;0.30;;;21.20;86.30;;;;;;4390076;32;20088;-72